createdAt,value
2018-10-02T00:00:56.208Z,98343.37
2018-10-02T00:03:24.797Z,98344.70
2018-10-02T00:05:53.369Z,98349.39
2018-10-02T00:08:21.932Z,98343.26
2018-10-02T00:10:55.687Z,98352.68
2018-10-02T00:13:29.512Z,98345.92
2018-10-02T00:15:58.064Z,98352.47
2018-10-02T00:18:26.654Z,98350.02
2018-10-02T00:20:55.192Z,98356.14
2018-10-02T00:23:23.768Z,98363.08
2018-10-02T00:25:52.319Z,98356.84
2018-10-02T00:28:20.903Z,98364.61
2018-10-02T00:30:49.431Z,98358.91
2018-10-02T00:33:17.997Z,98358.38
2018-10-02T00:35:46.536Z,98351.73
2018-10-02T00:38:15.107Z,98362.69
2018-10-02T00:40:43.672Z,98360.23
2018-10-02T00:43:12.280Z,98358.59
2018-10-02T00:45:40.837Z,98359.59
2018-10-02T00:48:09.668Z,98357.26
2018-10-02T00:50:38.216Z,98359.50
2018-10-02T00:53:06.856Z,98360.00
2018-10-02T00:55:35.411Z,98359.30
2018-10-02T00:58:03.989Z,98369.21
2018-10-02T01:00:32.661Z,98366.84
2018-10-02T01:03:01.200Z,98366.48
2018-10-02T01:05:29.788Z,98377.77
2018-10-02T01:07:58.320Z,98380.17
2018-10-02T01:10:26.904Z,98374.69
2018-10-02T01:12:55.486Z,98376.48
2018-10-02T01:15:24.068Z,98367.80
2018-10-02T01:17:52.619Z,98367.38
2018-10-02T01:20:21.281Z,98370.75
2018-10-02T01:22:49.840Z,98367.27
2018-10-02T01:25:18.452Z,98373.31
2018-10-02T01:27:47.002Z,98364.41
2018-10-02T01:30:15.557Z,98371.37
2018-10-02T01:32:44.092Z,98373.81
2018-10-02T01:35:12.652Z,98370.25
2018-10-02T01:37:41.213Z,98374.11
2018-10-02T01:40:09.784Z,98372.28
2018-10-02T01:42:38.317Z,98370.13
2018-10-02T01:45:07.456Z,98368.97
2018-10-02T01:47:35.968Z,98372.66
2018-10-02T01:50:04.665Z,98361.38
2018-10-02T01:52:33.188Z,98370.37
2018-10-02T01:55:01.756Z,98377.71
2018-10-02T01:57:30.283Z,98377.67
2018-10-02T01:59:59.083Z,98380.03
2018-10-02T02:02:27.604Z,98379.89
2018-10-02T02:04:56.172Z,98382.34
2018-10-02T02:07:24.714Z,98386.39
2018-10-02T02:09:53.255Z,98393.71
2018-10-02T02:12:21.784Z,98391.23
2018-10-02T02:14:50.339Z,98395.99
2018-10-02T02:17:18.843Z,98397.21
2018-10-02T02:19:47.429Z,98397.27
2018-10-02T02:22:15.950Z,98404.83
2018-10-02T02:24:44.487Z,98402.80
2018-10-02T02:27:13.013Z,98399.44
2018-10-02T02:29:41.596Z,98401.39
2018-10-02T02:32:10.119Z,98402.95
2018-10-02T02:34:38.673Z,98408.67
2018-10-02T02:37:07.567Z,98401.31
2018-10-02T02:39:36.124Z,98405.92
2018-10-02T02:42:04.683Z,98403.58
2018-10-02T02:44:33.209Z,98406.66
2018-10-02T02:47:07.080Z,98404.05
2018-10-02T02:49:40.756Z,98403.83
2018-10-02T02:52:09.396Z,98412.48
2018-10-02T02:54:37.941Z,98403.90
2018-10-02T02:57:06.920Z,98408.45
2018-10-02T02:59:35.451Z,98415.94
2018-10-02T03:02:04.021Z,98420.28
2018-10-02T03:04:32.545Z,98417.92
2018-10-02T03:07:01.102Z,98423.00
2018-10-02T03:09:29.644Z,98422.00
2018-10-02T03:11:58.220Z,98428.07
2018-10-02T03:14:26.753Z,98428.44
2018-10-02T03:16:55.303Z,98438.97
2018-10-02T03:19:23.842Z,98438.86
2018-10-02T03:21:52.500Z,98440.31
2018-10-02T03:24:20.944Z,98446.95
2018-10-02T03:26:49.521Z,98451.71
2018-10-02T03:29:18.067Z,98465.08
2018-10-02T03:31:46.630Z,98466.92
2018-10-02T03:34:15.185Z,98471.97
2018-10-02T03:36:43.754Z,98475.36
2018-10-02T03:39:12.294Z,98477.05
2018-10-02T03:41:40.885Z,98483.24
2018-10-02T03:44:09.635Z,98482.16
2018-10-02T03:46:38.200Z,98482.48
2018-10-02T03:49:06.898Z,98484.53
2018-10-02T03:51:35.481Z,98485.90
2018-10-02T03:54:04.024Z,98489.00
2018-10-02T03:56:32.608Z,98496.75
2018-10-02T03:59:01.148Z,98500.98
2018-10-02T04:01:29.719Z,98501.16
2018-10-02T04:03:58.253Z,98504.61
2018-10-02T04:06:26.832Z,98490.52
2018-10-02T04:08:55.363Z,98498.67
2018-10-02T04:11:23.914Z,98503.16
2018-10-02T04:13:52.432Z,98505.44
2018-10-02T04:16:21.008Z,98503.88
2018-10-02T04:18:49.550Z,98498.81
2018-10-02T04:21:22.268Z,98503.79
2018-10-02T04:23:50.815Z,98505.17
2018-10-02T04:26:19.371Z,98508.99
2018-10-02T04:28:47.916Z,98509.14
2018-10-02T04:31:16.442Z,98511.30
2018-10-02T04:33:45.056Z,98507.94
2018-10-02T04:36:13.576Z,98510.13
2018-10-02T04:38:42.144Z,98513.23
2018-10-02T04:41:10.716Z,98514.09
2018-10-02T04:43:39.304Z,98508.34
2018-10-02T04:46:07.965Z,98516.52
2018-10-02T04:48:36.552Z,98519.84
2018-10-02T04:51:05.094Z,98519.72
2018-10-02T04:53:34.117Z,98523.01
2018-10-02T04:56:02.842Z,98531.95
2018-10-02T04:58:31.363Z,98534.69
2018-10-02T05:01:00.316Z,98539.03
2018-10-02T05:03:28.868Z,98538.78
2018-10-02T05:05:57.484Z,98537.24
2018-10-02T05:08:26.105Z,98542.16
2018-10-02T05:10:54.615Z,98544.56
2018-10-02T05:13:23.173Z,98543.02
2018-10-02T05:15:52.072Z,98542.95
2018-10-02T05:18:20.640Z,98537.08
2018-10-02T05:20:49.337Z,98538.41
2018-10-02T05:23:17.847Z,98542.47
2018-10-02T05:25:46.374Z,98542.37
2018-10-02T05:28:14.929Z,98553.87
2018-10-02T05:30:43.484Z,98558.64
2018-10-02T05:33:12.731Z,98561.94
2018-10-02T05:35:41.313Z,98558.11
2018-10-02T05:38:09.956Z,98568.88
2018-10-02T05:40:38.605Z,98562.20
2018-10-02T05:43:07.204Z,98566.61
2018-10-02T05:45:35.737Z,98562.34
2018-10-02T05:48:05.157Z,98567.87
2018-10-02T05:50:33.828Z,98580.02
2018-10-02T05:53:02.373Z,98583.06
2018-10-02T05:55:36.201Z,98586.11
2018-10-02T05:58:04.807Z,98591.64
2018-10-02T06:00:33.335Z,98589.13
2018-10-02T06:03:01.895Z,98589.02
2018-10-02T06:05:30.437Z,98595.84
2018-10-02T06:07:59.056Z,98599.98
2018-10-02T06:10:27.597Z,98603.45
2018-10-02T06:12:56.154Z,98604.22
2018-10-02T06:15:24.712Z,98612.69
2018-10-02T06:17:53.301Z,98614.89
2018-10-02T06:20:21.868Z,98611.63
2018-10-02T06:22:50.419Z,98615.18
2018-10-02T06:25:19.013Z,98619.30
2018-10-02T06:27:47.533Z,98621.73
2018-10-02T06:30:16.177Z,98631.96
2018-10-02T06:32:44.865Z,98641.03
2018-10-02T06:35:13.380Z,98643.82
2018-10-02T06:37:41.909Z,98648.07
2018-10-02T06:40:10.500Z,98647.85
2018-10-02T06:42:39.050Z,98649.38
2018-10-02T06:45:08.678Z,98649.05
2018-10-02T06:47:37.326Z,98652.19
2018-10-02T06:50:05.954Z,98658.31
2018-10-02T06:52:34.754Z,98653.12
2018-10-02T06:55:03.112Z,98656.78
2018-10-02T06:57:31.638Z,98657.33
2018-10-02T07:00:00.192Z,98666.16
2018-10-02T07:02:28.836Z,98660.11
2018-10-02T07:04:57.374Z,98663.31
2018-10-02T07:07:25.985Z,98665.70
2018-10-02T07:09:54.555Z,98666.80
2018-10-02T07:12:23.093Z,98671.14
2018-10-02T07:14:51.673Z,98668.18
2018-10-02T07:17:20.240Z,98672.25
2018-10-02T07:19:48.925Z,98671.27
2018-10-02T07:22:17.480Z,98668.38
2018-10-02T07:24:46.518Z,98659.56
2018-10-02T07:27:15.413Z,98656.16
2018-10-02T07:29:43.997Z,98660.17
2018-10-02T07:32:12.609Z,98659.91
2018-10-02T07:34:45.640Z,98659.69
2018-10-02T07:37:14.439Z,98662.66
2018-10-02T07:39:43.009Z,98660.09
2018-10-02T07:42:11.689Z,98658.59
2018-10-02T07:44:40.405Z,98667.25
2018-10-02T07:47:08.961Z,98670.47
2018-10-02T07:49:37.615Z,98675.25
2018-10-02T07:52:06.164Z,98689.53
2018-10-02T07:54:34.740Z,98694.65
2018-10-02T07:57:03.300Z,98687.47
2018-10-02T07:59:31.857Z,98690.59
2018-10-02T08:02:00.436Z,98697.65
2018-10-02T08:07:03.573Z,98684.55
2018-10-02T08:09:32.112Z,98693.58
2018-10-02T08:12:00.681Z,98690.63
2018-10-02T08:14:29.249Z,98686.52
2018-10-02T08:16:57.792Z,98677.19
2018-10-02T08:19:26.328Z,98689.98
2018-10-02T08:21:54.885Z,98704.70
2018-10-02T08:24:23.408Z,98706.26
2018-10-02T08:26:52.038Z,98704.39
2018-10-02T08:29:20.579Z,98711.41
2018-10-02T08:31:49.109Z,98716.61
2018-10-02T08:34:17.625Z,98703.34
2018-10-02T08:36:46.189Z,98713.18
2018-10-02T08:39:14.736Z,98706.42
2018-10-02T08:41:43.355Z,98696.41
2018-10-02T08:44:11.852Z,98697.86
2018-10-02T08:46:40.415Z,98684.56
2018-10-02T08:49:08.965Z,98700.86
2018-10-02T08:51:37.602Z,98693.06
2018-10-02T08:54:06.218Z,98700.91
2018-10-02T08:56:34.745Z,98694.16
2018-10-02T08:59:03.278Z,98693.67
2018-10-02T09:01:31.845Z,98692.92
2018-10-02T09:04:00.368Z,98693.47
2018-10-02T09:06:33.344Z,98681.84
2018-10-02T09:09:02.028Z,98687.30
2018-10-02T09:11:30.581Z,98689.45
2018-10-02T09:13:59.161Z,98682.80
2018-10-02T09:16:27.774Z,98686.76
2018-10-02T09:18:56.363Z,98679.84
2018-10-02T09:21:24.935Z,98688.16
2018-10-02T09:23:53.533Z,98669.94
2018-10-02T09:26:22.061Z,98671.02
2018-10-02T09:28:50.601Z,98664.40
2018-10-02T09:31:24.349Z,98661.84
2018-10-02T09:33:58.285Z,98665.18
2018-10-02T09:36:32.141Z,98668.64
2018-10-02T09:39:05.803Z,98669.17
2018-10-02T09:41:39.590Z,98679.55
2018-10-02T09:44:08.545Z,98669.44
2018-10-02T09:46:37.149Z,98681.58
2018-10-02T09:49:05.706Z,98686.24
2018-10-02T09:51:34.266Z,98676.33
2018-10-02T09:54:02.859Z,98680.69
2018-10-02T09:56:36.740Z,98681.08
2018-10-02T09:59:05.312Z,98670.80
2018-10-02T10:01:39.160Z,98665.55
2018-10-02T10:04:07.842Z,98675.47
2018-10-02T10:06:36.348Z,98665.61
2018-10-02T10:09:05.804Z,98678.56
2018-10-02T10:11:34.344Z,98662.61
2018-10-02T10:14:02.945Z,98654.90
2018-10-02T10:16:31.489Z,98660.09
2018-10-02T10:19:00.121Z,98648.98
2018-10-02T10:21:28.649Z,98652.23
2018-10-02T10:23:57.225Z,98652.67
2018-10-02T10:26:25.808Z,98658.14
2018-10-02T10:28:54.398Z,98652.37
2018-10-02T10:31:22.942Z,98659.23
2018-10-02T10:33:51.536Z,98647.05
2018-10-02T10:36:20.086Z,98649.14
2018-10-02T10:38:48.664Z,98646.22
2018-10-02T10:41:17.215Z,98648.52
2018-10-02T10:43:45.772Z,98639.70
2018-10-02T10:46:14.304Z,98639.27
2018-10-02T10:48:42.893Z,98642.31
2018-10-02T10:51:11.428Z,98624.91
2018-10-02T10:53:40.009Z,98635.16
2018-10-02T10:56:08.827Z,98642.47
2018-10-02T10:58:37.418Z,98642.47
2018-10-02T11:01:05.968Z,98641.39
2018-10-02T11:03:34.553Z,98635.44
2018-10-02T11:06:03.084Z,98639.02
2018-10-02T11:08:31.641Z,98634.98
2018-10-02T11:11:00.182Z,98636.86
2018-10-02T11:13:28.751Z,98644.20
2018-10-02T11:15:57.305Z,98625.17
2018-10-02T11:18:25.886Z,98629.68
2018-10-02T11:20:54.582Z,98621.58
2018-10-02T11:23:23.231Z,98611.55
2018-10-02T11:25:51.841Z,98607.97
2018-10-02T11:28:20.393Z,98610.81
2018-10-02T11:30:48.954Z,98610.07
2018-10-02T11:33:17.558Z,98597.34
2018-10-02T11:35:46.194Z,98595.41
2018-10-02T11:38:14.848Z,98591.87
2018-10-02T11:40:43.476Z,98578.05
2018-10-02T11:43:12.095Z,98576.53
2018-10-02T11:45:40.694Z,98582.16
2018-10-02T11:48:09.273Z,98583.84
2018-10-02T11:50:37.891Z,98594.81
2018-10-02T11:53:06.858Z,98588.27
2018-10-02T11:55:35.570Z,98582.59
2018-10-02T11:58:04.128Z,98582.92
2018-10-02T12:00:32.820Z,98576.41
2018-10-02T12:03:01.609Z,98565.77
2018-10-02T12:05:30.232Z,98558.94
2018-10-02T12:07:58.818Z,98567.53
2018-10-02T12:10:27.411Z,98549.27
2018-10-02T12:12:56.025Z,98546.95
2018-10-02T12:15:24.650Z,98549.16
2018-10-02T12:17:53.245Z,98552.90
2018-10-02T12:20:21.875Z,98546.25
2018-10-02T12:22:50.424Z,98541.92
2018-10-02T12:25:19.008Z,98560.95
2018-10-02T12:27:47.649Z,98543.84
2018-10-02T12:30:16.680Z,98535.77
2018-10-02T12:32:45.450Z,98548.21
2018-10-02T12:35:14.236Z,98553.67
2018-10-02T12:37:42.813Z,98538.42
2018-10-02T12:40:11.996Z,98539.95
2018-10-02T12:42:46.407Z,98532.27
2018-10-02T12:45:15.155Z,98535.83
2018-10-02T12:47:43.854Z,98537.17
2018-10-02T12:50:13.015Z,98532.63
2018-10-02T12:52:41.763Z,98527.88
2018-10-02T12:55:10.438Z,98528.88
2018-10-02T12:57:39.047Z,98531.39
2018-10-02T13:00:07.758Z,98533.55
2018-10-02T13:02:36.360Z,98516.70
2018-10-02T13:05:05.640Z,98534.97
2018-10-02T13:07:34.541Z,98533.90
2018-10-02T13:10:03.250Z,98530.48
2018-10-02T13:12:31.826Z,98527.59
2018-10-02T13:15:00.437Z,98533.98
2018-10-02T13:17:29.005Z,98531.00
2018-10-02T13:19:57.595Z,98529.30
2018-10-02T13:22:26.165Z,98499.66
2018-10-02T13:24:54.736Z,98518.83
2018-10-02T13:27:23.349Z,98516.68
2018-10-02T13:29:52.479Z,98517.56
2018-10-02T13:32:21.143Z,98513.62
2018-10-02T13:34:49.745Z,98505.48
2018-10-02T13:37:18.663Z,98507.48
2018-10-02T13:39:47.244Z,98513.47
2018-10-02T13:42:15.891Z,98513.78
2018-10-02T13:44:44.440Z,98515.86
2018-10-02T13:47:13.043Z,98510.36
2018-10-02T13:49:41.584Z,98502.49
2018-10-02T13:52:10.186Z,98504.42
2018-10-02T13:54:38.749Z,98497.07
2018-10-02T13:57:07.337Z,98501.66
2018-10-02T13:59:35.885Z,98496.19
2018-10-02T14:02:04.545Z,98499.00
2018-10-02T14:04:33.172Z,98499.92
2018-10-02T14:07:01.765Z,98510.92
2018-10-02T14:09:30.301Z,98507.84
2018-10-02T14:11:59.012Z,98501.50
2018-10-02T14:14:27.588Z,98495.80
2018-10-02T14:16:56.153Z,98509.50
2018-10-02T14:19:24.793Z,98514.80
2018-10-02T14:21:53.365Z,98508.45
2018-10-02T14:24:21.907Z,98510.92
2018-10-02T14:26:50.502Z,98508.81
2018-10-02T14:29:19.042Z,98504.17
2018-10-02T14:31:47.616Z,98504.92
2018-10-02T14:34:16.161Z,98501.16
2018-10-02T14:36:44.818Z,98487.19
2018-10-02T14:39:13.285Z,98489.12
2018-10-02T14:41:41.846Z,98482.77
2018-10-02T14:44:10.374Z,98487.94
2018-10-02T14:46:38.968Z,98483.33
2018-10-02T14:49:07.524Z,98480.14
2018-10-02T14:51:36.093Z,98472.66
2018-10-02T14:54:04.678Z,98470.59
2018-10-02T14:56:33.228Z,98473.31
2018-10-02T14:59:01.783Z,98471.91
2018-10-02T15:01:30.480Z,98469.08
2018-10-02T15:03:59.037Z,98470.87
2018-10-02T15:06:27.641Z,98470.95
2018-10-02T15:08:56.186Z,98470.71
2018-10-02T15:11:24.812Z,98474.80
2018-10-02T15:13:53.437Z,98474.49
2018-10-02T15:16:22.013Z,98470.20
2018-10-02T15:18:50.572Z,98474.00
2018-10-02T15:21:19.278Z,98465.12
2018-10-02T15:23:47.874Z,98468.63
2018-10-02T15:26:16.404Z,98456.69
2018-10-02T15:28:45.059Z,98452.63
2018-10-02T15:31:13.643Z,98447.00
2018-10-02T15:33:42.216Z,98444.39
2018-10-02T15:36:10.800Z,98449.95
2018-10-02T15:38:39.385Z,98446.00
2018-10-02T15:41:07.965Z,98442.81
2018-10-02T15:43:36.551Z,98435.18
2018-10-02T15:46:05.089Z,98431.17
2018-10-02T15:48:33.697Z,98423.34
2018-10-02T15:51:02.291Z,98422.22
2018-10-02T15:53:30.857Z,98422.36
2018-10-02T15:56:00.314Z,98417.13
2018-10-02T15:58:28.912Z,98424.73
2018-10-02T16:00:57.509Z,98416.33
2018-10-02T16:03:26.227Z,98417.59
2018-10-02T16:05:54.797Z,98418.84
2018-10-02T16:08:23.437Z,98417.66
2018-10-02T16:10:52.110Z,98419.20
2018-10-02T16:13:20.832Z,98420.38
2018-10-02T16:15:49.396Z,98423.30
2018-10-02T16:18:18.068Z,98418.56
2018-10-02T16:20:46.597Z,98419.61
2018-10-02T16:23:15.813Z,98424.06
2018-10-02T16:25:44.430Z,98429.78
2018-10-02T16:28:13.063Z,98430.50
2018-10-02T16:30:41.642Z,98433.91
2018-10-02T16:33:10.262Z,98430.89
2018-10-02T16:35:38.845Z,98435.20
2018-10-02T16:38:07.558Z,98435.02
2018-10-02T16:40:36.128Z,98442.31
2018-10-02T16:43:04.752Z,98449.55
2018-10-02T16:45:33.345Z,98450.09
2018-10-02T16:48:02.002Z,98444.50
2018-10-02T16:50:30.617Z,98446.81
2018-10-02T16:52:59.177Z,98447.27
2018-10-02T16:55:27.866Z,98448.05
2018-10-02T16:57:56.478Z,98450.17
2018-10-02T17:00:25.135Z,98456.06
2018-10-02T17:02:53.745Z,98453.33
2018-10-02T17:05:22.364Z,98452.98
2018-10-02T17:07:50.928Z,98454.61
2018-10-02T17:10:19.557Z,98445.71
2018-10-02T17:12:48.173Z,98458.28
2018-10-02T17:15:16.822Z,98455.89
2018-10-02T17:17:45.380Z,98454.22
2018-10-02T17:20:13.988Z,98454.56
2018-10-02T17:22:42.574Z,98451.72
2018-10-02T17:25:11.201Z,98454.66
2018-10-02T17:27:39.926Z,98446.87
2018-10-02T17:30:08.537Z,98454.95
2018-10-02T17:32:37.173Z,98458.39
2018-10-02T17:35:05.830Z,98461.17
2018-10-02T17:37:34.462Z,98463.50
2018-10-02T17:40:03.139Z,98463.45
2018-10-02T17:42:31.697Z,98464.11
2018-10-02T17:45:00.344Z,98458.17
2018-10-02T17:47:29.206Z,98461.61
2018-10-02T17:49:57.807Z,98462.28
2018-10-02T17:52:26.369Z,98460.98
2018-10-02T17:54:55.093Z,98470.70
2018-10-02T17:57:23.641Z,98473.27
2018-10-02T17:59:52.238Z,98473.95
2018-10-02T18:02:20.871Z,98479.98
2018-10-02T18:04:49.496Z,98482.22
2018-10-02T18:07:18.279Z,98492.77
2018-10-02T18:09:46.909Z,98495.83
2018-10-02T18:12:15.507Z,98497.16
2018-10-02T18:14:44.139Z,98492.81
2018-10-02T18:17:12.725Z,98492.55
2018-10-02T18:19:41.396Z,98489.53
2018-10-02T18:22:10.042Z,98491.41
2018-10-02T18:24:38.652Z,98486.13
2018-10-02T18:27:07.258Z,98484.03
2018-10-02T18:29:35.916Z,98485.99
2018-10-02T18:32:04.480Z,98489.38
2018-10-02T18:34:33.072Z,98486.07
2018-10-02T18:37:01.675Z,98482.91
2018-10-02T18:39:30.264Z,98487.88
2018-10-02T18:41:58.862Z,98487.53
2018-10-02T18:44:27.429Z,98496.59
2018-10-02T18:46:56.261Z,98492.98
2018-10-02T18:49:24.823Z,98492.70
2018-10-02T18:51:53.433Z,98491.33
2018-10-02T18:54:21.996Z,98494.88
2018-10-02T18:56:50.636Z,98495.48
2018-10-02T18:59:19.840Z,98494.73
2018-10-02T19:01:48.782Z,98491.27
2018-10-02T19:04:17.342Z,98494.95
2018-10-02T19:06:46.037Z,98502.23
2018-10-02T19:09:16.756Z,98501.17
2018-10-02T19:11:50.532Z,98498.00
2018-10-02T19:14:19.924Z,98497.67
2018-10-02T19:16:49.181Z,98500.11
2018-10-02T19:19:22.925Z,98510.44
2018-10-02T19:21:51.549Z,98509.11
2018-10-02T19:24:20.139Z,98522.05
2018-10-02T19:26:48.728Z,98509.93
2018-10-02T19:29:17.326Z,98520.20
2018-10-02T19:31:51.048Z,98522.09
2018-10-02T19:34:19.602Z,98520.00
2018-10-02T19:36:48.209Z,98524.27
2018-10-02T19:39:22.642Z,98526.51
2018-10-02T19:41:51.697Z,98526.22
2018-10-02T19:44:20.289Z,98521.32
2018-10-02T19:47:03.083Z,98522.61
2018-10-02T19:49:33.064Z,98531.22
2018-10-02T19:52:06.763Z,98523.66
2018-10-02T19:54:35.350Z,98526.94
2018-10-02T19:57:04.129Z,98527.27
2018-10-02T19:59:32.681Z,98536.23
2018-10-02T20:02:01.274Z,98538.91
2018-10-02T20:04:29.865Z,98527.44
2018-10-02T20:06:58.526Z,98532.98
2018-10-02T20:09:27.089Z,98531.29
2018-10-02T20:11:55.700Z,98534.39
2018-10-02T20:14:24.284Z,98531.72
2018-10-02T20:16:52.868Z,98533.17
2018-10-02T20:19:21.420Z,98538.44
2018-10-02T20:21:50.041Z,98537.83
2018-10-02T20:24:18.687Z,98536.88
2018-10-02T20:26:47.268Z,98544.39
2018-10-02T20:29:15.909Z,98532.06
2018-10-02T20:31:47.144Z,98541.10
2018-10-02T20:34:15.780Z,98545.00
2018-10-02T20:36:44.373Z,98545.86
2018-10-02T20:39:13.465Z,98547.70
2018-10-02T20:41:42.039Z,98543.38
2018-10-02T20:44:10.850Z,98542.27
2018-10-02T20:46:39.428Z,98543.31
2018-10-02T20:49:08.163Z,98546.98
2018-10-02T20:51:36.649Z,98547.09
2018-10-02T20:54:05.248Z,98545.76
2018-10-02T20:56:33.862Z,98544.75
2018-10-02T20:59:02.489Z,98545.91
2018-10-02T21:01:31.153Z,98540.03
2018-10-02T21:03:59.784Z,98532.17
2018-10-02T21:06:28.386Z,98536.07
2018-10-02T21:08:56.998Z,98542.30
2018-10-02T21:11:25.552Z,98539.23
2018-10-02T21:13:54.142Z,98538.92
2018-10-02T21:16:22.719Z,98539.03
2018-10-02T21:18:51.314Z,98538.48
2018-10-02T21:21:21.375Z,98536.43
2018-10-02T21:23:49.981Z,98529.63
2018-10-02T21:26:18.569Z,98539.78
2018-10-02T21:28:47.204Z,98544.67
2018-10-02T21:31:15.752Z,98540.14
2018-10-02T21:33:44.366Z,98530.23
2018-10-02T21:36:12.940Z,98535.42
2018-10-02T21:38:41.507Z,98523.39
2018-10-02T21:41:10.078Z,98522.78
2018-10-02T21:43:38.687Z,98531.92
2018-10-02T21:46:07.330Z,98527.31
2018-10-02T21:48:35.963Z,98525.98
2018-10-02T21:51:04.543Z,98520.77
2018-10-02T21:53:33.151Z,98530.20
2018-10-02T21:56:01.907Z,98524.12
2018-10-02T21:58:30.516Z,98521.66
2018-10-02T22:01:03.924Z,98537.73
2018-10-02T22:03:33.856Z,98534.67
2018-10-02T22:06:02.449Z,98535.28
2018-10-02T22:08:31.250Z,98525.84
2018-10-02T22:10:59.860Z,98519.69
2018-10-02T22:13:28.559Z,98523.97
2018-10-02T22:15:58.062Z,98526.74
2018-10-02T22:18:28.176Z,98528.25
2018-10-02T22:20:56.904Z,98523.31
2018-10-02T22:23:25.816Z,98525.44
2018-10-02T22:25:54.412Z,98523.27
2018-10-02T22:28:22.978Z,98522.72
2018-10-02T22:30:51.604Z,98533.10
2018-10-02T22:33:20.189Z,98535.09
2018-10-02T22:35:48.760Z,98532.21
2018-10-02T22:38:17.324Z,98531.81
2018-10-02T22:40:45.904Z,98524.47
2018-10-02T22:43:14.489Z,98535.99
2018-10-02T22:45:43.092Z,98531.49
2018-10-02T22:48:11.659Z,98509.77
2018-10-02T22:50:40.288Z,98517.83
2018-10-02T22:53:08.840Z,98521.32
2018-10-02T22:55:37.444Z,98516.28
2018-10-02T22:58:06.353Z,98517.84
2018-10-02T23:00:34.983Z,98520.16
2018-10-02T23:03:03.556Z,98529.23
2018-10-02T23:05:32.164Z,98526.83
2018-10-02T23:08:00.725Z,98521.66
2018-10-02T23:10:29.282Z,98518.18
2018-10-02T23:12:57.820Z,98507.66
2018-10-02T23:15:26.402Z,98513.89
2018-10-02T23:17:54.990Z,98509.79
2018-10-02T23:20:23.576Z,98521.94
2018-10-02T23:22:52.388Z,98516.50
2018-10-02T23:25:20.986Z,98524.38
2018-10-02T23:27:49.619Z,98525.95
2018-10-02T23:30:18.196Z,98529.17
2018-10-02T23:32:46.833Z,98528.45
2018-10-02T23:35:15.428Z,98528.00
2018-10-02T23:37:44.040Z,98530.56
2018-10-02T23:40:12.624Z,98529.95
2018-10-02T23:42:41.160Z,98529.17
2018-10-02T23:45:09.728Z,98535.61
2018-10-02T23:47:38.284Z,98536.84
2018-10-02T23:50:06.912Z,98539.30
2018-10-02T23:52:35.459Z,98532.55
2018-10-02T23:55:04.064Z,98538.50
2018-10-02T23:57:32.641Z,98529.06
